sensor_id;sensor_type;location;lat;lon;timestamp;P1;durP1;ratioP1;P2;durP2;ratioP2
72085;SDS011;64750;52.134;5.424;2024-03-06T00:01:05;22.23;;;17.20;;
72085;SDS011;64750;52.134;5.424;2024-03-06T00:03:33;21.23;;;16.27;;
72085;SDS011;64750;52.134;5.424;2024-03-06T00:05:59;21.60;;;15.60;;
72085;SDS011;64750;52.134;5.424;2024-03-06T00:08:26;20.80;;;15.43;;
72085;SDS011;64750;52.134;5.424;2024-03-06T00:10:52;20.17;;;16.45;;
72085;SDS011;64750;52.134;5.424;2024-03-06T00:13:19;19.55;;;16.83;;
72085;SDS011;64750;52.134;5.424;2024-03-06T00:15:46;20.67;;;15.93;;
72085;SDS011;64750;52.134;5.424;2024-03-06T00:18:13;21.00;;;16.40;;
72085;SDS011;64750;52.134;5.424;2024-03-06T00:20:40;22.00;;;16.77;;
72085;SDS011;64750;52.134;5.424;2024-03-06T00:23:08;20.17;;;15.98;;
72085;SDS011;64750;52.134;5.424;2024-03-06T00:25:35;19.95;;;15.05;;
72085;SDS011;64750;52.134;5.424;2024-03-06T00:28:02;19.63;;;16.00;;
72085;SDS011;64750;52.134;5.424;2024-03-06T00:30:29;21.53;;;16.17;;
72085;SDS011;64750;52.134;5.424;2024-03-06T00:32:55;16.95;;;14.68;;
72085;SDS011;64750;52.134;5.424;2024-03-06T00:35:22;20.60;;;15.73;;
72085;SDS011;64750;52.134;5.424;2024-03-06T00:37:48;17.85;;;14.95;;
72085;SDS011;64750;52.134;5.424;2024-03-06T00:40:15;20.95;;;16.20;;
72085;SDS011;64750;52.134;5.424;2024-03-06T00:42:41;20.67;;;16.50;;
72085;SDS011;64750;52.134;5.424;2024-03-06T00:45:08;19.17;;;15.20;;
72085;SDS011;64750;52.134;5.424;2024-03-06T00:47:34;19.00;;;15.48;;
72085;SDS011;64750;52.134;5.424;2024-03-06T00:50:01;20.85;;;15.90;;
72085;SDS011;64750;52.134;5.424;2024-03-06T00:52:28;21.33;;;16.25;;
72085;SDS011;64750;52.134;5.424;2024-03-06T00:54:55;21.00;;;14.37;;
72085;SDS011;64750;52.134;5.424;2024-03-06T00:57:22;22.27;;;16.77;;
72085;SDS011;64750;52.134;5.424;2024-03-06T00:59:50;22.52;;;15.95;;
72085;SDS011;64750;52.134;5.424;2024-03-06T01:02:16;23.52;;;16.10;;
72085;SDS011;64750;52.134;5.424;2024-03-06T01:04:43;26.15;;;17.88;;
72085;SDS011;64750;52.134;5.424;2024-03-06T01:07:10;21.30;;;15.60;;
72085;SDS011;64750;52.134;5.424;2024-03-06T01:09:36;23.60;;;17.42;;
72085;SDS011;64750;52.134;5.424;2024-03-06T01:12:03;20.70;;;16.52;;
72085;SDS011;64750;52.134;5.424;2024-03-06T01:14:29;22.63;;;16.30;;
72085;SDS011;64750;52.134;5.424;2024-03-06T01:16:57;17.45;;;15.35;;
72085;SDS011;64750;52.134;5.424;2024-03-06T01:19:23;20.60;;;15.73;;
72085;SDS011;64750;52.134;5.424;2024-03-06T01:21:50;17.95;;;15.13;;
72085;SDS011;64750;52.134;5.424;2024-03-06T01:24:16;17.45;;;15.65;;
72085;SDS011;64750;52.134;5.424;2024-03-06T01:26:43;21.25;;;17.73;;
72085;SDS011;64750;52.134;5.424;2024-03-06T01:29:09;25.55;;;16.70;;
72085;SDS011;64750;52.134;5.424;2024-03-06T01:31:35;20.70;;;16.87;;
72085;SDS011;64750;52.134;5.424;2024-03-06T01:34:02;23.55;;;16.70;;
72085;SDS011;64750;52.134;5.424;2024-03-06T01:36:28;22.40;;;16.23;;
72085;SDS011;64750;52.134;5.424;2024-03-06T01:38:55;21.20;;;16.55;;
72085;SDS011;64750;52.134;5.424;2024-03-06T01:41:21;26.45;;;17.55;;
72085;SDS011;64750;52.134;5.424;2024-03-06T01:43:48;22.70;;;16.97;;
72085;SDS011;64750;52.134;5.424;2024-03-06T01:46:14;24.05;;;17.88;;
72085;SDS011;64750;52.134;5.424;2024-03-06T01:48:41;22.90;;;18.10;;
72085;SDS011;64750;52.134;5.424;2024-03-06T01:51:09;28.48;;;18.80;;
72085;SDS011;64750;52.134;5.424;2024-03-06T01:53:35;27.52;;;19.80;;
72085;SDS011;64750;52.134;5.424;2024-03-06T01:56:03;23.97;;;17.43;;
72085;SDS011;64750;52.134;5.424;2024-03-06T01:58:30;25.02;;;17.48;;
72085;SDS011;64750;52.134;5.424;2024-03-06T02:01:00;26.15;;;18.83;;
72085;SDS011;64750;52.134;5.424;2024-03-06T02:03:27;25.10;;;17.77;;
72085;SDS011;64750;52.134;5.424;2024-03-06T02:05:54;21.92;;;17.83;;
72085;SDS011;64750;52.134;5.424;2024-03-06T02:08:21;22.13;;;17.33;;
72085;SDS011;64750;52.134;5.424;2024-03-06T02:10:48;23.52;;;16.65;;
72085;SDS011;64750;52.134;5.424;2024-03-06T02:13:14;24.50;;;17.63;;
72085;SDS011;64750;52.134;5.424;2024-03-06T02:15:41;26.02;;;16.77;;
72085;SDS011;64750;52.134;5.424;2024-03-06T02:18:08;24.90;;;17.52;;
72085;SDS011;64750;52.134;5.424;2024-03-06T02:20:39;21.57;;;16.43;;
72085;SDS011;64750;52.134;5.424;2024-03-06T02:23:08;21.98;;;17.38;;
72085;SDS011;64750;52.134;5.424;2024-03-06T02:25:35;21.02;;;16.92;;
72085;SDS011;64750;52.134;5.424;2024-03-06T02:28:01;19.27;;;15.30;;
72085;SDS011;64750;52.134;5.424;2024-03-06T02:30:28;21.10;;;16.05;;
72085;SDS011;64750;52.134;5.424;2024-03-06T02:32:56;22.17;;;16.83;;
72085;SDS011;64750;52.134;5.424;2024-03-06T02:35:23;23.58;;;16.08;;
72085;SDS011;64750;52.134;5.424;2024-03-06T02:37:49;22.33;;;17.25;;
72085;SDS011;64750;52.134;5.424;2024-03-06T02:40:16;22.83;;;16.23;;
72085;SDS011;64750;52.134;5.424;2024-03-06T02:42:43;18.10;;;15.75;;
72085;SDS011;64750;52.134;5.424;2024-03-06T02:45:09;21.23;;;16.70;;
72085;SDS011;64750;52.134;5.424;2024-03-06T02:47:36;20.73;;;15.68;;
72085;SDS011;64750;52.134;5.424;2024-03-06T02:50:02;21.33;;;16.33;;
72085;SDS011;64750;52.134;5.424;2024-03-06T02:52:29;21.30;;;16.13;;
72085;SDS011;64750;52.134;5.424;2024-03-06T02:54:55;23.10;;;16.58;;
72085;SDS011;64750;52.134;5.424;2024-03-06T02:57:22;23.50;;;16.97;;
72085;SDS011;64750;52.134;5.424;2024-03-06T02:59:49;22.63;;;16.65;;
72085;SDS011;64750;52.134;5.424;2024-03-06T03:02:16;22.48;;;16.98;;
72085;SDS011;64750;52.134;5.424;2024-03-06T03:04:42;24.00;;;16.45;;
72085;SDS011;64750;52.134;5.424;2024-03-06T03:07:10;23.52;;;17.00;;
72085;SDS011;64750;52.134;5.424;2024-03-06T03:09:36;20.90;;;15.47;;
72085;SDS011;64750;52.134;5.424;2024-03-06T03:12:05;24.52;;;16.38;;
72085;SDS011;64750;52.134;5.424;2024-03-06T03:14:32;20.60;;;15.88;;
72085;SDS011;64750;52.134;5.424;2024-03-06T03:16:59;17.40;;;14.88;;
72085;SDS011;64750;52.134;5.424;2024-03-06T03:19:26;21.42;;;15.85;;
72085;SDS011;64750;52.134;5.424;2024-03-06T03:21:53;23.20;;;15.77;;
72085;SDS011;64750;52.134;5.424;2024-03-06T03:24:19;20.77;;;15.35;;
72085;SDS011;64750;52.134;5.424;2024-03-06T03:26:47;19.85;;;15.32;;
72085;SDS011;64750;52.134;5.424;2024-03-06T03:29:13;21.40;;;16.30;;
72085;SDS011;64750;52.134;5.424;2024-03-06T03:31:40;23.63;;;16.33;;
72085;SDS011;64750;52.134;5.424;2024-03-06T03:34:07;20.90;;;15.70;;
72085;SDS011;64750;52.134;5.424;2024-03-06T03:36:35;19.23;;;15.48;;
72085;SDS011;64750;52.134;5.424;2024-03-06T03:39:01;20.38;;;15.50;;
72085;SDS011;64750;52.134;5.424;2024-03-06T03:41:29;22.63;;;15.30;;
72085;SDS011;64750;52.134;5.424;2024-03-06T03:43:56;20.25;;;15.75;;
72085;SDS011;64750;52.134;5.424;2024-03-06T03:46:22;21.07;;;16.03;;
72085;SDS011;64750;52.134;5.424;2024-03-06T03:48:49;22.73;;;15.77;;
72085;SDS011;64750;52.134;5.424;2024-03-06T03:51:15;20.15;;;14.90;;
72085;SDS011;64750;52.134;5.424;2024-03-06T03:53:42;20.20;;;14.23;;
72085;SDS011;64750;52.134;5.424;2024-03-06T03:56:09;17.83;;;14.93;;
72085;SDS011;64750;52.134;5.424;2024-03-06T03:58:35;17.03;;;14.00;;
72085;SDS011;64750;52.134;5.424;2024-03-06T04:01:03;13.93;;;12.35;;
72085;SDS011;64750;52.134;5.424;2024-03-06T04:03:30;13.25;;;11.95;;
72085;SDS011;64750;52.134;5.424;2024-03-06T04:05:56;13.75;;;11.77;;
72085;SDS011;64750;52.134;5.424;2024-03-06T04:08:22;14.75;;;11.30;;
72085;SDS011;64750;52.134;5.424;2024-03-06T04:10:49;12.57;;;11.33;;
72085;SDS011;64750;52.134;5.424;2024-03-06T04:13:16;15.73;;;12.57;;
72085;SDS011;64750;52.134;5.424;2024-03-06T04:15:43;16.13;;;11.75;;
72085;SDS011;64750;52.134;5.424;2024-03-06T04:18:09;12.00;;;10.85;;
72085;SDS011;64750;52.134;5.424;2024-03-06T04:20:36;13.75;;;10.98;;
72085;SDS011;64750;52.134;5.424;2024-03-06T04:23:02;12.13;;;11.03;;
72085;SDS011;64750;52.134;5.424;2024-03-06T04:25:29;12.25;;;11.15;;
72085;SDS011;64750;52.134;5.424;2024-03-06T04:27:56;12.73;;;11.40;;
72085;SDS011;64750;52.134;5.424;2024-03-06T04:30:22;16.50;;;11.88;;
72085;SDS011;64750;52.134;5.424;2024-03-06T04:32:49;11.85;;;10.52;;
72085;SDS011;64750;52.134;5.424;2024-03-06T04:35:15;12.33;;;11.03;;
72085;SDS011;64750;52.134;5.424;2024-03-06T04:37:42;12.43;;;11.13;;
72085;SDS011;64750;52.134;5.424;2024-03-06T04:40:10;12.85;;;11.57;;
72085;SDS011;64750;52.134;5.424;2024-03-06T04:42:37;12.38;;;11.07;;
72085;SDS011;64750;52.134;5.424;2024-03-06T04:45:09;13.30;;;11.85;;
72085;SDS011;64750;52.134;5.424;2024-03-06T04:47:37;15.17;;;11.43;;
72085;SDS011;64750;52.134;5.424;2024-03-06T04:50:07;37.55;;;11.65;;
72085;SDS011;64750;52.134;5.424;2024-03-06T04:52:38;51.78;;;12.00;;
72085;SDS011;64750;52.134;5.424;2024-03-06T04:55:05;36.47;;;11.75;;
72085;SDS011;64750;52.134;5.424;2024-03-06T04:57:34;23.05;;;12.27;;
72085;SDS011;64750;52.134;5.424;2024-03-06T05:00:00;26.80;;;11.90;;
72085;SDS011;64750;52.134;5.424;2024-03-06T05:02:32;38.70;;;12.05;;
72085;SDS011;64750;52.134;5.424;2024-03-06T05:05:20;42.97;;;11.30;;
72085;SDS011;64750;52.134;5.424;2024-03-06T05:08:05;25.13;;;10.73;;
72085;SDS011;64750;52.134;5.424;2024-03-06T05:10:50;15.15;;;10.18;;
72085;SDS011;64750;52.134;5.424;2024-03-06T05:13:34;12.23;;;9.20;;
72085;SDS011;64750;52.134;5.424;2024-03-06T05:16:18;31.67;;;10.27;;
72085;SDS011;64750;52.134;5.424;2024-03-06T05:19:02;37.50;;;10.00;;
72085;SDS011;64750;52.134;5.424;2024-03-06T05:21:46;52.22;;;10.88;;
72085;SDS011;64750;52.134;5.424;2024-03-06T05:24:30;18.30;;;10.38;;
72085;SDS011;64750;52.134;5.424;2024-03-06T05:27:14;10.53;;;9.60;;
72085;SDS011;64750;52.134;5.424;2024-03-06T05:30:00;10.30;;;9.40;;
72085;SDS011;64750;52.134;5.424;2024-03-06T05:32:44;35.13;;;10.15;;
72085;SDS011;64750;52.134;5.424;2024-03-06T05:35:30;25.50;;;10.05;;
72085;SDS011;64750;52.134;5.424;2024-03-06T05:38:14;37.67;;;10.80;;
72085;SDS011;64750;52.134;5.424;2024-03-06T05:40:58;26.27;;;10.33;;
72085;SDS011;64750;52.134;5.424;2024-03-06T05:43:42;12.32;;;9.65;;
72085;SDS011;64750;52.134;5.424;2024-03-06T05:46:26;31.48;;;10.55;;
72085;SDS011;64750;52.134;5.424;2024-03-06T05:49:10;20.80;;;9.80;;
72085;SDS011;64750;52.134;5.424;2024-03-06T05:51:54;29.30;;;10.02;;
72085;SDS011;64750;52.134;5.424;2024-03-06T05:54:38;58.47;;;10.50;;
72085;SDS011;64750;52.134;5.424;2024-03-06T05:57:23;45.53;;;10.35;;
72085;SDS011;64750;52.134;5.424;2024-03-06T06:00:07;22.95;;;10.05;;
72085;SDS011;64750;52.134;5.424;2024-03-06T06:02:38;24.05;;;10.00;;
72085;SDS011;64750;52.134;5.424;2024-03-06T06:05:04;46.05;;;11.23;;
72085;SDS011;64750;52.134;5.424;2024-03-06T06:07:48;34.50;;;10.50;;
72085;SDS011;64750;52.134;5.424;2024-03-06T06:10:16;32.63;;;10.90;;
72085;SDS011;64750;52.134;5.424;2024-03-06T06:12:46;26.70;;;10.57;;
72085;SDS011;64750;52.134;5.424;2024-03-06T06:15:13;25.27;;;11.27;;
72085;SDS011;64750;52.134;5.424;2024-03-06T06:17:39;39.83;;;11.70;;
72085;SDS011;64750;52.134;5.424;2024-03-06T06:20:09;42.87;;;11.57;;
72085;SDS011;64750;52.134;5.424;2024-03-06T06:22:41;45.20;;;11.43;;
72085;SDS011;64750;52.134;5.424;2024-03-06T06:25:08;14.40;;;12.38;;
72085;SDS011;64750;52.134;5.424;2024-03-06T06:27:36;13.18;;;11.88;;
72085;SDS011;64750;52.134;5.424;2024-03-06T06:30:02;34.00;;;12.63;;
72085;SDS011;64750;52.134;5.424;2024-03-06T06:32:32;26.07;;;12.20;;
72085;SDS011;64750;52.134;5.424;2024-03-06T06:34:59;67.40;;;12.02;;
72085;SDS011;64750;52.134;5.424;2024-03-06T06:37:25;39.35;;;11.95;;
72085;SDS011;64750;52.134;5.424;2024-03-06T06:39:52;34.25;;;11.93;;
72085;SDS011;64750;52.134;5.424;2024-03-06T06:42:19;24.23;;;12.45;;
72085;SDS011;64750;52.134;5.424;2024-03-06T06:44:45;12.83;;;11.47;;
72085;SDS011;64750;52.134;5.424;2024-03-06T06:47:11;13.00;;;11.75;;
72085;SDS011;64750;52.134;5.424;2024-03-06T06:49:39;17.48;;;11.60;;
72085;SDS011;64750;52.134;5.424;2024-03-06T06:52:05;15.82;;;12.43;;
72085;SDS011;64750;52.134;5.424;2024-03-06T06:54:32;16.02;;;12.68;;
72085;SDS011;64750;52.134;5.424;2024-03-06T06:56:58;14.47;;;12.97;;
72085;SDS011;64750;52.134;5.424;2024-03-06T06:59:25;17.45;;;13.52;;
72085;SDS011;64750;52.134;5.424;2024-03-06T07:01:51;14.98;;;13.32;;
72085;SDS011;64750;52.134;5.424;2024-03-06T07:04:18;21.13;;;13.77;;
72085;SDS011;64750;52.134;5.424;2024-03-06T07:06:46;30.02;;;14.57;;
72085;SDS011;64750;52.134;5.424;2024-03-06T07:09:13;21.40;;;14.63;;
72085;SDS011;64750;52.134;5.424;2024-03-06T07:11:42;20.90;;;14.57;;
72085;SDS011;64750;52.134;5.424;2024-03-06T07:14:13;24.48;;;15.10;;
72085;SDS011;64750;52.134;5.424;2024-03-06T07:16:44;28.65;;;14.80;;
72085;SDS011;64750;52.134;5.424;2024-03-06T07:19:11;20.67;;;16.27;;
72085;SDS011;64750;52.134;5.424;2024-03-06T07:21:38;28.40;;;15.47;;
72085;SDS011;64750;52.134;5.424;2024-03-06T07:24:05;37.17;;;14.75;;
72085;SDS011;64750;52.134;5.424;2024-03-06T07:26:32;58.45;;;15.25;;
72085;SDS011;64750;52.134;5.424;2024-03-06T07:28:59;58.28;;;15.73;;
72085;SDS011;64750;52.134;5.424;2024-03-06T07:31:27;22.50;;;15.82;;
72085;SDS011;64750;52.134;5.424;2024-03-06T07:33:53;44.60;;;14.80;;
72085;SDS011;64750;52.134;5.424;2024-03-06T07:36:20;20.85;;;15.15;;
72085;SDS011;64750;52.134;5.424;2024-03-06T07:38:46;28.25;;;15.68;;
72085;SDS011;64750;52.134;5.424;2024-03-06T07:41:13;31.65;;;15.48;;
72085;SDS011;64750;52.134;5.424;2024-03-06T07:43:39;67.85;;;15.73;;
72085;SDS011;64750;52.134;5.424;2024-03-06T07:46:06;49.37;;;16.53;;
72085;SDS011;64750;52.134;5.424;2024-03-06T07:48:36;33.40;;;16.65;;
72085;SDS011;64750;52.134;5.424;2024-03-06T07:51:03;29.60;;;15.73;;
72085;SDS011;64750;52.134;5.424;2024-03-06T07:53:30;31.48;;;16.27;;
72085;SDS011;64750;52.134;5.424;2024-03-06T07:55:57;25.15;;;16.65;;
72085;SDS011;64750;52.134;5.424;2024-03-06T07:58:23;26.67;;;16.47;;
72085;SDS011;64750;52.134;5.424;2024-03-06T08:00:50;44.90;;;15.90;;
72085;SDS011;64750;52.134;5.424;2024-03-06T08:03:19;35.13;;;17.17;;
72085;SDS011;64750;52.134;5.424;2024-03-06T08:05:46;22.15;;;17.08;;
72085;SDS011;64750;52.134;5.424;2024-03-06T08:08:13;28.45;;;17.02;;
72085;SDS011;64750;52.134;5.424;2024-03-06T08:10:39;36.47;;;16.77;;
72085;SDS011;64750;52.134;5.424;2024-03-06T08:13:06;27.67;;;16.85;;
72085;SDS011;64750;52.134;5.424;2024-03-06T08:15:32;31.13;;;18.00;;
72085;SDS011;64750;52.134;5.424;2024-03-06T08:17:59;32.90;;;17.25;;
72085;SDS011;64750;52.134;5.424;2024-03-06T08:20:25;25.33;;;17.98;;
72085;SDS011;64750;52.134;5.424;2024-03-06T08:22:54;29.90;;;16.67;;
72085;SDS011;64750;52.134;5.424;2024-03-06T08:25:22;27.92;;;17.50;;
72085;SDS011;64750;52.134;5.424;2024-03-06T08:27:49;27.52;;;19.05;;
72085;SDS011;64750;52.134;5.424;2024-03-06T08:30:15;39.90;;;18.48;;
72085;SDS011;64750;52.134;5.424;2024-03-06T08:32:42;28.85;;;18.33;;
72085;SDS011;64750;52.134;5.424;2024-03-06T08:35:11;26.03;;;17.33;;
72085;SDS011;64750;52.134;5.424;2024-03-06T08:37:44;30.85;;;18.80;;
72085;SDS011;64750;52.134;5.424;2024-03-06T08:40:10;33.85;;;19.08;;
72085;SDS011;64750;52.134;5.424;2024-03-06T08:42:41;31.23;;;17.83;;
72085;SDS011;64750;52.134;5.424;2024-03-06T08:45:08;34.67;;;19.35;;
72085;SDS011;64750;52.134;5.424;2024-03-06T08:47:35;27.43;;;17.93;;
72085;SDS011;64750;52.134;5.424;2024-03-06T08:50:02;30.60;;;19.92;;
72085;SDS011;64750;52.134;5.424;2024-03-06T08:52:30;33.15;;;20.52;;
72085;SDS011;64750;52.134;5.424;2024-03-06T08:55:01;35.30;;;21.05;;
72085;SDS011;64750;52.134;5.424;2024-03-06T08:57:30;43.42;;;20.75;;
72085;SDS011;64750;52.134;5.424;2024-03-06T08:59:58;34.40;;;19.43;;
72085;SDS011;64750;52.134;5.424;2024-03-06T09:02:25;36.75;;;20.38;;
72085;SDS011;64750;52.134;5.424;2024-03-06T09:04:52;47.33;;;21.27;;
72085;SDS011;64750;52.134;5.424;2024-03-06T09:07:19;37.53;;;22.40;;
72085;SDS011;64750;52.134;5.424;2024-03-06T09:09:50;41.50;;;21.40;;
72085;SDS011;64750;52.134;5.424;2024-03-06T09:12:18;36.50;;;20.93;;
72085;SDS011;64750;52.134;5.424;2024-03-06T09:14:45;40.38;;;21.98;;
72085;SDS011;64750;52.134;5.424;2024-03-06T09:17:12;35.65;;;21.77;;
72085;SDS011;64750;52.134;5.424;2024-03-06T09:19:41;34.17;;;20.73;;
72085;SDS011;64750;52.134;5.424;2024-03-06T09:22:28;37.63;;;22.88;;
72085;SDS011;64750;52.134;5.424;2024-03-06T09:24:54;39.40;;;22.00;;
72085;SDS011;64750;52.134;5.424;2024-03-06T09:27:22;41.47;;;22.08;;
72085;SDS011;64750;52.134;5.424;2024-03-06T09:29:49;35.47;;;20.75;;
72085;SDS011;64750;52.134;5.424;2024-03-06T09:32:15;35.08;;;20.27;;
72085;SDS011;64750;52.134;5.424;2024-03-06T09:34:45;32.92;;;22.30;;
72085;SDS011;64750;52.134;5.424;2024-03-06T09:37:11;36.80;;;22.83;;
72085;SDS011;64750;52.134;5.424;2024-03-06T09:39:38;35.88;;;22.02;;
72085;SDS011;64750;52.134;5.424;2024-03-06T09:42:07;37.03;;;22.42;;
72085;SDS011;64750;52.134;5.424;2024-03-06T09:44:34;34.97;;;21.77;;
72085;SDS011;64750;52.134;5.424;2024-03-06T09:47:02;33.00;;;21.85;;
72085;SDS011;64750;52.134;5.424;2024-03-06T09:49:31;29.13;;;21.03;;
72085;SDS011;64750;52.134;5.424;2024-03-06T09:52:00;32.97;;;21.65;;
72085;SDS011;64750;52.134;5.424;2024-03-06T09:54:29;34.00;;;22.33;;
72085;SDS011;64750;52.134;5.424;2024-03-06T09:56:55;36.75;;;21.55;;
72085;SDS011;64750;52.134;5.424;2024-03-06T09:59:23;31.83;;;20.42;;
72085;SDS011;64750;52.134;5.424;2024-03-06T10:04:24;31.70;;;20.70;;
72085;SDS011;64750;52.134;5.424;2024-03-06T10:06:56;33.08;;;21.50;;
72085;SDS011;64750;52.134;5.424;2024-03-06T10:09:24;33.35;;;21.70;;
72085;SDS011;64750;52.134;5.424;2024-03-06T10:11:51;34.00;;;20.90;;
72085;SDS011;64750;52.134;5.424;2024-03-06T10:14:30;31.53;;;21.37;;
72085;SDS011;64750;52.134;5.424;2024-03-06T10:16:59;30.40;;;20.90;;
72085;SDS011;64750;52.134;5.424;2024-03-06T10:19:27;33.47;;;22.02;;
72085;SDS011;64750;52.134;5.424;2024-03-06T10:21:55;29.50;;;20.13;;
72085;SDS011;64750;52.134;5.424;2024-03-06T10:24:26;36.03;;;21.63;;
72085;SDS011;64750;52.134;5.424;2024-03-06T10:26:55;32.67;;;20.60;;
72085;SDS011;64750;52.134;5.424;2024-03-06T10:29:25;30.35;;;20.70;;
72085;SDS011;64750;52.134;5.424;2024-03-06T10:31:58;34.58;;;21.73;;
72085;SDS011;64750;52.134;5.424;2024-03-06T10:34:25;32.35;;;20.40;;
72085;SDS011;64750;52.134;5.424;2024-03-06T10:36:54;33.47;;;20.80;;
72085;SDS011;64750;52.134;5.424;2024-03-06T10:39:22;29.57;;;19.77;;
72085;SDS011;64750;52.134;5.424;2024-03-06T10:41:53;32.17;;;19.92;;
72085;SDS011;64750;52.134;5.424;2024-03-06T10:44:26;29.42;;;19.40;;
72085;SDS011;64750;52.134;5.424;2024-03-06T10:47:03;28.75;;;20.20;;
72085;SDS011;64750;52.134;5.424;2024-03-06T10:49:32;28.05;;;19.35;;
72085;SDS011;64750;52.134;5.424;2024-03-06T10:52:04;26.47;;;18.17;;
72085;SDS011;64750;52.134;5.424;2024-03-06T10:54:33;26.83;;;19.13;;
72085;SDS011;64750;52.134;5.424;2024-03-06T10:57:01;22.27;;;16.95;;
72085;SDS011;64750;52.134;5.424;2024-03-06T10:59:28;25.45;;;18.60;;
72085;SDS011;64750;52.134;5.424;2024-03-06T11:01:56;23.92;;;17.90;;
72085;SDS011;64750;52.134;5.424;2024-03-06T11:04:29;24.23;;;16.83;;
72085;SDS011;64750;52.134;5.424;2024-03-06T11:07:01;26.40;;;18.33;;
72085;SDS011;64750;52.134;5.424;2024-03-06T11:09:33;24.90;;;18.05;;
72085;SDS011;64750;52.134;5.424;2024-03-06T11:12:04;24.52;;;17.80;;
72085;SDS011;64750;52.134;5.424;2024-03-06T11:14:38;26.00;;;18.40;;
72085;SDS011;64750;52.134;5.424;2024-03-06T11:17:07;23.37;;;17.37;;
72085;SDS011;64750;52.134;5.424;2024-03-06T11:28:19;28.40;;;18.75;;
72085;SDS011;64750;52.134;5.424;2024-03-06T11:30:47;24.73;;;17.57;;
72085;SDS011;64750;52.134;5.424;2024-03-06T11:33:21;23.35;;;17.17;;
72085;SDS011;64750;52.134;5.424;2024-03-06T11:38:48;24.50;;;17.30;;
72085;SDS011;64750;52.134;5.424;2024-03-06T11:41:14;25.67;;;18.17;;
72085;SDS011;64750;52.134;5.424;2024-03-06T11:43:44;25.60;;;17.57;;
72085;SDS011;64750;52.134;5.424;2024-03-06T11:46:11;25.70;;;17.20;;
72085;SDS011;64750;52.134;5.424;2024-03-06T11:48:38;24.23;;;16.73;;
72085;SDS011;64750;52.134;5.424;2024-03-06T11:51:05;22.80;;;16.52;;
72085;SDS011;64750;52.134;5.424;2024-03-06T11:53:32;22.48;;;16.80;;
72085;SDS011;64750;52.134;5.424;2024-03-06T11:56:00;22.47;;;16.50;;
72085;SDS011;64750;52.134;5.424;2024-03-06T11:58:27;21.17;;;16.08;;
72085;SDS011;64750;52.134;5.424;2024-03-06T12:00:53;22.25;;;16.63;;
72085;SDS011;64750;52.134;5.424;2024-03-06T12:03:20;20.38;;;15.40;;
72085;SDS011;64750;52.134;5.424;2024-03-06T12:05:49;21.05;;;16.13;;
72085;SDS011;64750;52.134;5.424;2024-03-06T12:08:16;22.20;;;15.27;;
72085;SDS011;64750;52.134;5.424;2024-03-06T12:10:43;19.92;;;15.98;;
72085;SDS011;64750;52.134;5.424;2024-03-06T12:13:11;21.60;;;15.85;;
72085;SDS011;64750;52.134;5.424;2024-03-06T12:15:42;22.13;;;15.48;;
72085;SDS011;64750;52.134;5.424;2024-03-06T12:18:09;19.27;;;14.40;;
72085;SDS011;64750;52.134;5.424;2024-03-06T12:20:39;18.37;;;14.07;;
72085;SDS011;64750;52.134;5.424;2024-03-06T12:23:07;19.33;;;14.50;;
72085;SDS011;64750;52.134;5.424;2024-03-06T12:25:34;20.30;;;15.43;;
72085;SDS011;64750;52.134;5.424;2024-03-06T12:28:06;16.52;;;14.30;;
72085;SDS011;64750;52.134;5.424;2024-03-06T12:30:41;14.63;;;12.60;;
72085;SDS011;64750;52.134;5.424;2024-03-06T12:33:10;13.43;;;11.73;;
72085;SDS011;64750;52.134;5.424;2024-03-06T12:35:40;16.20;;;12.50;;
72085;SDS011;64750;52.134;5.424;2024-03-06T12:38:14;17.40;;;13.10;;
72085;SDS011;64750;52.134;5.424;2024-03-06T12:40:43;12.00;;;10.38;;
72085;SDS011;64750;52.134;5.424;2024-03-06T12:43:10;13.43;;;10.27;;
72085;SDS011;64750;52.134;5.424;2024-03-06T12:45:36;13.27;;;10.27;;
72085;SDS011;64750;52.134;5.424;2024-03-06T12:48:03;10.43;;;8.68;;
72085;SDS011;64750;52.134;5.424;2024-03-06T12:50:32;11.20;;;9.45;;
72085;SDS011;64750;52.134;5.424;2024-03-06T12:52:58;8.68;;;7.80;;
72085;SDS011;64750;52.134;5.424;2024-03-06T12:55:25;11.40;;;9.25;;
72085;SDS011;64750;52.134;5.424;2024-03-06T12:57:52;8.77;;;7.87;;
72085;SDS011;64750;52.134;5.424;2024-03-06T13:00:19;9.05;;;7.70;;
72085;SDS011;64750;52.134;5.424;2024-03-06T13:02:46;7.75;;;7.05;;
72085;SDS011;64750;52.134;5.424;2024-03-06T13:05:13;11.77;;;7.43;;
72085;SDS011;64750;52.134;5.424;2024-03-06T13:07:39;8.40;;;7.55;;
72085;SDS011;64750;52.134;5.424;2024-03-06T13:10:08;8.50;;;7.70;;
72085;SDS011;64750;52.134;5.424;2024-03-06T13:12:37;8.10;;;7.25;;
72085;SDS011;64750;52.134;5.424;2024-03-06T13:15:04;8.93;;;7.60;;
72085;SDS011;64750;52.134;5.424;2024-03-06T13:17:31;8.48;;;6.75;;
72085;SDS011;64750;52.134;5.424;2024-03-06T13:19:57;8.00;;;6.57;;
72085;SDS011;64750;52.134;5.424;2024-03-06T13:22:24;6.90;;;6.30;;
72085;SDS011;64750;52.134;5.424;2024-03-06T13:24:50;6.70;;;6.03;;
72085;SDS011;64750;52.134;5.424;2024-03-06T13:27:17;6.65;;;6.03;;
72085;SDS011;64750;52.134;5.424;2024-03-06T13:29:44;7.30;;;6.25;;
72085;SDS011;64750;52.134;5.424;2024-03-06T13:32:10;9.32;;;5.82;;
72085;SDS011;64750;52.134;5.424;2024-03-06T13:34:37;7.03;;;5.83;;
72085;SDS011;64750;52.134;5.424;2024-03-06T13:37:04;6.43;;;5.82;;
72085;SDS011;64750;52.134;5.424;2024-03-06T13:39:32;7.00;;;6.05;;
72085;SDS011;64750;52.134;5.424;2024-03-06T13:41:59;6.57;;;5.95;;
72085;SDS011;64750;52.134;5.424;2024-03-06T13:44:25;6.45;;;5.85;;
72085;SDS011;64750;52.134;5.424;2024-03-06T13:46:52;6.33;;;5.73;;
72085;SDS011;64750;52.134;5.424;2024-03-06T13:49:35;6.30;;;5.72;;
72085;SDS011;64750;52.134;5.424;2024-03-06T13:52:03;9.70;;;6.70;;
72085;SDS011;64750;52.134;5.424;2024-03-06T13:54:31;7.30;;;6.45;;
72085;SDS011;64750;52.134;5.424;2024-03-06T13:56:58;9.07;;;6.18;;
72085;SDS011;64750;52.134;5.424;2024-03-06T13:59:28;7.27;;;6.43;;
72085;SDS011;64750;52.134;5.424;2024-03-06T14:01:56;7.03;;;6.43;;
72085;SDS011;64750;52.134;5.424;2024-03-06T14:04:23;7.72;;;7.00;;
72085;SDS011;64750;52.134;5.424;2024-03-06T14:06:50;10.55;;;7.35;;
72085;SDS011;64750;52.134;5.424;2024-03-06T14:09:16;9.57;;;7.35;;
72085;SDS011;64750;52.134;5.424;2024-03-06T14:11:43;8.20;;;7.43;;
72085;SDS011;64750;52.134;5.424;2024-03-06T14:14:10;9.55;;;7.00;;
72085;SDS011;64750;52.134;5.424;2024-03-06T14:16:40;9.68;;;7.07;;
72085;SDS011;64750;52.134;5.424;2024-03-06T14:19:06;9.43;;;7.65;;
72085;SDS011;64750;52.134;5.424;2024-03-06T14:21:33;10.93;;;8.35;;
72085;SDS011;64750;52.134;5.424;2024-03-06T14:24:01;8.57;;;7.73;;
72085;SDS011;64750;52.134;5.424;2024-03-06T14:26:32;8.65;;;7.90;;
72085;SDS011;64750;52.134;5.424;2024-03-06T14:28:59;9.07;;;8.13;;
72085;SDS011;64750;52.134;5.424;2024-03-06T14:31:28;9.23;;;7.43;;
72085;SDS011;64750;52.134;5.424;2024-03-06T14:33:54;8.88;;;7.97;;
72085;SDS011;64750;52.134;5.424;2024-03-06T14:36:22;10.27;;;7.53;;
72085;SDS011;64750;52.134;5.424;2024-03-06T14:38:51;9.90;;;8.18;;
72085;SDS011;64750;52.134;5.424;2024-03-06T14:41:21;9.57;;;7.07;;
72085;SDS011;64750;52.134;5.424;2024-03-06T14:43:48;7.45;;;6.75;;
72085;SDS011;64750;52.134;5.424;2024-03-06T14:46:14;11.10;;;7.75;;
72085;SDS011;64750;52.134;5.424;2024-03-06T14:48:41;8.23;;;6.77;;